Time;durP1;ratioP1;P1;durP2;ratioP2;P2;SDS_P1;SDS_P2;PMS_P1;PMS_P2;Temp;Humidity;BMP_temperature;BMP_pressure;BME280_temperature;BME280_humidity;BME280_pressure;Samples;Min_cycle;Max_cycle;Signal;HPM_P1;HPM_P2
2021/03/25 00:02:10;;;;;;;8.73;4.15;;;10.10;96.70;;;;;;4923858;29;20065;-78
2021/03/25 00:04:38;;;;;;;7.45;4.35;;;10.10;96.70;;;;;;4939006;29;20042;-78
2021/03/25 00:07:05;;;;;;;9.07;4.88;;;10.00;96.70;;;;;;4928260;28;20061;-78
2021/03/25 00:09:37;;;;;;;6.38;4.47;;;10.00;96.70;;;;;;4905491;29;20067;-78
2021/03/25 00:12:07;;;;;;;7.47;4.57;;;10.10;96.70;;;;;;4902674;29;20052;-78
2021/03/25 00:14:34;;;;;;;7.47;4.75;;;10.00;96.70;;;;;;4920349;29;20127;-78
2021/03/25 00:17:02;;;;;;;7.05;4.47;;;9.90;96.70;;;;;;4926274;29;20040;-78
2021/03/25 00:19:30;;;;;;;5.40;4.30;;;10.00;96.70;;;;;;4921531;29;20050;-78
2021/03/25 00:21:57;;;;;;;5.93;4.28;;;10.00;96.70;;;;;;4931349;28;20096;-77
2021/03/25 00:24:24;;;;;;;7.97;4.43;;;9.90;96.70;;;;;;4917302;29;20067;-77
2021/03/25 00:26:51;;;;;;;8.60;4.93;;;9.90;96.70;;;;;;4925851;29;20083;-77
2021/03/25 00:29:19;;;;;;;8.60;4.60;;;9.80;96.70;;;;;;4921271;29;20126;-78
2021/03/25 00:31:47;;;;;;;6.03;4.53;;;9.80;96.70;;;;;;4919264;29;20137;-77
2021/03/25 00:34:17;;;;;;;6.13;3.92;;;9.80;96.70;;;;;;4927381;29;20039;-78
2021/03/25 00:36:44;;;;;;;7.05;4.32;;;9.80;96.70;;;;;;4922812;29;20547;-77
2021/03/25 00:39:13;;;;;;;8.80;3.53;;;9.80;96.70;;;;;;4928419;29;20532;-78
2021/03/25 00:41:40;;;;;;;8.45;4.10;;;9.70;96.70;;;;;;4935366;28;20043;-77
2021/03/25 00:44:10;;;;;;;5.85;3.92;;;9.60;96.70;;;;;;4933581;28;20059;-77
2021/03/25 00:46:38;;;;;;;5.60;4.00;;;9.50;96.70;;;;;;4923045;29;20464;-77
2021/03/25 00:49:06;;;;;;;4.97;3.47;;;9.50;96.70;;;;;;4922756;29;20267;-77
2021/03/25 00:51:34;;;;;;;5.82;4.18;;;9.50;96.70;;;;;;4922697;29;20122;-77
2021/03/25 00:54:03;;;;;;;5.85;4.10;;;9.60;96.70;;;;;;4928083;28;20040;-77
2021/03/25 00:56:31;;;;;;;6.43;3.83;;;9.50;96.70;;;;;;4924007;29;20051;-77
2021/03/25 00:58:58;;;;;;;5.82;3.80;;;9.50;96.70;;;;;;4939823;28;20510;-77
2021/03/25 01:01:26;;;;;;;6.43;4.47;;;9.50;96.70;;;;;;4920600;29;20087;-77
2021/03/25 01:03:54;;;;;;;7.10;4.40;;;9.40;96.70;;;;;;4917595;29;20050;-76
2021/03/25 01:06:22;;;;;;;7.15;3.75;;;9.40;96.70;;;;;;4941080;28;20074;-77
2021/03/25 01:08:49;;;;;;;5.50;3.78;;;9.50;96.70;;;;;;4958473;28;20263;-76
2021/03/25 01:11:19;;;;;;;8.63;3.95;;;9.40;96.70;;;;;;4938779;28;20071;-77
2021/03/25 01:13:50;;;;;;;8.13;3.95;;;9.50;96.70;;;;;;4948180;28;20049;-77
2021/03/25 01:16:26;;;;;;;6.45;3.30;;;9.50;96.70;;;;;;4945933;28;20046;-77
2021/03/25 01:18:57;;;;;;;6.07;3.33;;;9.50;96.70;;;;;;4962210;28;20507;-77
2021/03/25 01:21:26;;;;;;;6.70;3.13;;;9.40;96.70;;;;;;4944469;28;20059;-76
2021/03/25 01:23:54;;;;;;;5.13;3.03;;;9.40;96.70;;;;;;4947600;28;20075;-76
2021/03/25 01:26:24;;;;;;;4.28;2.40;;;9.40;96.70;;;;;;4961117;28;20041;-77
2021/03/25 01:28:52;;;;;;;5.65;3.25;;;9.40;96.70;;;;;;4963874;28;20039;-77
2021/03/25 01:31:21;;;;;;;8.90;3.55;;;9.30;96.70;;;;;;4956479;28;20472;-77
2021/03/25 01:33:49;;;;;;;4.82;3.40;;;9.40;96.70;;;;;;4942088;28;20050;-77
2021/03/25 01:36:17;;;;;;;5.70;3.38;;;9.40;96.70;;;;;;4942033;28;20146;-77
2021/03/25 01:38:45;;;;;;;6.10;3.50;;;9.40;96.70;;;;;;4961369;28;20047;-76
2021/03/25 01:41:23;;;;;;;4.40;2.50;;;9.40;96.70;;;;;;4959016;28;20039;-77
2021/03/25 01:43:50;;;;;;;4.75;2.78;;;9.30;96.70;;;;;;4960945;28;20513;-78
2021/03/25 01:46:21;;;;;;;6.05;3.13;;;9.30;96.70;;;;;;4944364;28;20043;-78
2021/03/25 01:48:51;;;;;;;5.93;2.92;;;9.20;96.70;;;;;;4941538;29;20054;-77
2021/03/25 01:51:35;;;;;;;4.65;2.70;;;9.20;96.70;;;;;;4945491;28;20043;-77
2021/03/25 01:54:31;;;;;;;4.97;2.65;;;9.20;96.70;;;;;;4956493;28;20047;-77
2021/03/25 01:57:17;;;;;;;4.77;2.93;;;9.10;96.70;;;;;;4958981;28;20050;-77
2021/03/25 02:00:12;;;;;;;4.97;2.50;;;9.10;96.70;;;;;;4939883;28;20078;-77
2021/03/25 02:02:57;;;;;;;5.25;2.80;;;9.10;96.70;;;;;;4944409;28;20500;-77
2021/03/25 02:05:41;;;;;;;6.32;3.35;;;9.10;96.70;;;;;;4939914;28;20054;-77
2021/03/25 02:08:23;;;;;;;5.47;3.10;;;9.10;96.70;;;;;;4944581;28;20047;-77
2021/03/25 02:11:02;;;;;;;6.10;3.20;;;9.00;96.70;;;;;;4945046;28;20071;-78
2021/03/25 02:13:35;;;;;;;11.13;5.28;;;8.90;96.70;;;;;;4959061;28;20056;-78
2021/03/25 02:16:09;;;;;;;8.75;5.45;;;9.00;96.70;;;;;;4938996;28;20039;-78
2021/03/25 02:19:06;;;;;;;5.97;3.92;;;8.80;96.70;;;;;;4937517;29;20051;-77
2021/03/25 02:21:50;;;;;;;7.10;3.33;;;8.90;96.70;;;;;;4926953;29;20479;-78
2021/03/25 02:24:30;;;;;;;9.93;4.03;;;8.90;96.70;;;;;;4940711;28;20046;-78
2021/03/25 02:27:21;;;;;;;4.70;3.05;;;8.90;96.70;;;;;;4940779;29;20106;-78
2021/03/25 02:29:53;;;;;;;4.57;3.00;;;8.80;96.70;;;;;;4941345;29;20045;-78
2021/03/25 02:32:26;;;;;;;4.40;3.05;;;8.80;96.70;;;;;;4941999;29;20043;-77
2021/03/25 02:35:00;;;;;;;5.85;3.38;;;8.90;96.70;;;;;;4936287;28;20170;-78
2021/03/25 02:37:38;;;;;;;5.10;3.40;;;8.90;96.70;;;;;;4956116;28;20113;-77
2021/03/25 02:40:11;;;;;;;5.80;3.40;;;8.80;96.70;;;;;;4942072;29;20049;-78
2021/03/25 02:42:52;;;;;;;5.57;3.08;;;8.80;96.70;;;;;;4935531;29;20062;-78
2021/03/25 02:45:23;;;;;;;8.07;3.35;;;8.80;96.70;;;;;;4943872;28;20039;-78
2021/03/25 02:47:55;;;;;;;4.00;2.70;;;8.80;96.70;;;;;;4944267;28;20062;-78
2021/03/25 02:50:27;;;;;;;6.57;3.30;;;8.70;96.70;;;;;;4944507;28;20560;-77
2021/03/25 02:52:59;;;;;;;6.22;3.03;;;8.70;96.70;;;;;;4942746;29;20047;-78
2021/03/25 02:55:28;;;;;;;5.18;2.67;;;8.60;96.70;;;;;;4940431;29;20051;-77
2021/03/25 02:58:06;;;;;;;5.40;2.65;;;8.60;96.70;;;;;;4943703;28;20445;-77
2021/03/25 03:00:39;;;;;;;7.50;2.90;;;8.70;96.70;;;;;;4957271;28;20047;-78
2021/03/25 03:03:12;;;;;;;4.45;2.83;;;8.70;96.70;;;;;;4943141;28;20340;-77
2021/03/25 03:05:52;;;;;;;5.43;3.00;;;8.60;96.70;;;;;;4928076;29;20058;-77
2021/03/25 03:08:23;;;;;;;5.93;3.30;;;8.40;96.70;;;;;;4925073;29;20039;-77
2021/03/25 03:10:53;;;;;;;5.18;2.88;;;8.20;96.70;;;;;;4936409;29;20126;-78
2021/03/25 03:13:24;;;;;;;6.57;3.13;;;8.00;96.70;;;;;;4937536;28;20067;-77
2021/03/25 03:15:59;;;;;;;5.63;2.70;;;8.00;96.70;;;;;;4938950;29;20134;-77
2021/03/25 03:18:36;;;;;;;4.63;2.58;;;8.10;96.70;;;;;;4936816;28;20050;-78
2021/03/25 03:21:18;;;;;;;6.13;2.78;;;8.20;96.70;;;;;;4942872;29;20148;-78
2021/03/25 03:23:57;;;;;;;5.78;2.95;;;8.10;96.70;;;;;;4941255;28;20067;-77
2021/03/25 03:26:43;;;;;;;4.20;2.65;;;8.10;96.70;;;;;;4936113;28;20502;-78
2021/03/25 03:29:11;;;;;;;5.55;2.75;;;8.10;96.70;;;;;;4943341;29;20050;-77
2021/03/25 03:31:42;;;;;;;4.28;2.60;;;8.10;96.70;;;;;;4927628;28;20488;-77
2021/03/25 03:34:20;;;;;;;5.18;2.60;;;8.10;96.70;;;;;;4941474;28;20611;-78
2021/03/25 03:36:56;;;;;;;5.30;2.50;;;8.10;96.70;;;;;;4938633;28;20497;-78
2021/03/25 03:39:27;;;;;;;5.95;3.00;;;8.10;96.70;;;;;;4942029;29;20051;-78
2021/03/25 03:41:59;;;;;;;4.47;3.03;;;8.10;96.70;;;;;;4937962;28;20134;-77
2021/03/25 03:44:33;;;;;;;3.53;2.17;;;8.10;96.70;;;;;;4938136;28;20047;-77
2021/03/25 03:47:03;;;;;;;3.78;2.83;;;8.00;96.70;;;;;;4940197;28;20515;-77
2021/03/25 03:49:37;;;;;;;2.78;2.33;;;8.10;96.70;;;;;;4926288;29;20125;-78
2021/03/25 03:52:08;;;;;;;6.38;2.88;;;8.10;96.70;;;;;;4950884;28;20052;-77
2021/03/25 03:54:41;;;;;;;3.60;2.33;;;8.10;96.70;;;;;;4936508;28;20099;-78
2021/03/25 03:57:18;;;;;;;4.93;2.78;;;8.10;96.70;;;;;;4937092;28;20069;-78
2021/03/25 03:59:56;;;;;;;3.38;2.42;;;8.10;96.70;;;;;;4942870;29;20504;-78
2021/03/25 04:02:35;;;;;;;5.07;2.35;;;8.10;96.70;;;;;;4927518;28;20054;-77
2021/03/25 04:05:14;;;;;;;4.25;2.90;;;8.10;96.70;;;;;;4939701;28;20039;-77
2021/03/25 04:07:57;;;;;;;7.43;2.47;;;8.00;96.70;;;;;;4941965;28;20051;-77
2021/03/25 04:10:41;;;;;;;4.35;2.80;;;8.00;96.70;;;;;;4938545;28;20044;-77
2021/03/25 04:13:36;;;;;;;4.95;2.75;;;7.90;96.70;;;;;;4941054;29;20047;-77
2021/03/25 04:16:04;;;;;;;6.30;2.78;;;7.80;96.70;;;;;;4935652;28;20118;-77
2021/03/25 04:18:40;;;;;;;4.03;2.65;;;7.70;96.70;;;;;;4926181;29;20043;-77
2021/03/25 04:21:22;;;;;;;5.13;3.33;;;7.80;96.70;;;;;;4947154;28;20075;-77
2021/03/25 04:23:51;;;;;;;5.80;4.25;;;7.80;96.70;;;;;;4941778;28;20054;-77
2021/03/25 04:26:25;;;;;;;5.80;3.65;;;7.80;96.70;;;;;;4940696;28;20039;-77
2021/03/25 04:29:04;;;;;;;6.00;3.28;;;7.90;96.70;;;;;;4937624;29;20040;-77
2021/03/25 04:31:32;;;;;;;6.18;4.40;;;7.90;96.70;;;;;;4938209;28;20114;-77
2021/03/25 04:34:00;;;;;;;7.80;3.95;;;7.90;96.70;;;;;;4922704;28;20047;-77
2021/03/25 04:36:32;;;;;;;6.90;3.75;;;7.90;96.70;;;;;;4955892;28;20097;-77
2021/03/25 04:39:01;;;;;;;6.68;4.60;;;7.90;96.70;;;;;;4941712;28;20122;-76
2021/03/25 04:41:31;;;;;;;5.47;3.42;;;7.80;96.70;;;;;;4940622;28;20137;-77
2021/03/25 04:44:00;;;;;;;3.90;3.08;;;7.80;96.70;;;;;;4951903;28;20050;-78
2021/03/25 04:46:40;;;;;;;6.10;3.40;;;7.70;96.70;;;;;;4938262;28;20036;-77
2021/03/25 04:49:15;;;;;;;6.75;3.80;;;7.70;96.70;;;;;;4958454;28;20830;-78
2021/03/25 04:51:43;;;;;;;6.45;3.30;;;7.60;96.70;;;;;;4940439;28;20118;-78
2021/03/25 04:54:25;;;;;;;5.25;3.63;;;7.70;96.70;;;;;;4928245;29;20049;-77
2021/03/25 04:56:53;;;;;;;5.70;4.10;;;7.70;96.70;;;;;;4943121;28;20125;-76
2021/03/25 04:59:22;;;;;;;7.10;4.40;;;7.70;96.70;;;;;;4941627;28;20039;-77
2021/03/25 05:01:49;;;;;;;5.85;3.72;;;7.70;96.70;;;;;;4945471;29;20142;-77
2021/03/25 05:04:16;;;;;;;5.38;3.53;;;7.60;96.70;;;;;;4943598;28;20451;-76
2021/03/25 05:06:48;;;;;;;6.88;4.20;;;7.70;96.70;;;;;;4940315;29;20133;-77
2021/03/25 05:09:17;;;;;;;6.88;3.85;;;7.60;96.70;;;;;;4940554;28;20054;-77
2021/03/25 05:11:45;;;;;;;9.00;5.28;;;7.60;96.70;;;;;;4929248;29;20039;-77
2021/03/25 05:14:16;;;;;;;5.13;4.30;;;7.60;96.70;;;;;;4942288;28;20039;-77
2021/03/25 05:16:53;;;;;;;6.15;3.20;;;7.50;96.70;;;;;;4943319;28;20063;-77
2021/03/25 05:19:34;;;;;;;5.80;3.47;;;7.50;96.70;;;;;;4937690;28;20052;-76
2021/03/25 05:22:14;;;;;;;6.15;3.38;;;7.50;96.70;;;;;;4936055;28;20056;-77
2021/03/25 05:24:46;;;;;;;4.88;2.83;;;7.60;96.70;;;;;;4939018;29;20118;-77
2021/03/25 05:27:19;;;;;;;6.57;3.00;;;7.50;96.70;;;;;;4943557;28;20527;-77
2021/03/25 05:29:49;;;;;;;7.00;3.15;;;7.60;96.70;;;;;;4942012;29;20135;-78
2021/03/25 05:32:22;;;;;;;4.50;3.17;;;7.60;96.70;;;;;;4927255;29;20063;-78
2021/03/25 05:34:54;;;;;;;5.38;2.92;;;7.60;96.70;;;;;;4942622;29;20051;-77
2021/03/25 05:37:22;;;;;;;5.13;3.10;;;7.60;96.70;;;;;;4928871;29;20051;-78
2021/03/25 05:39:49;;;;;;;6.30;3.40;;;7.60;96.70;;;;;;4943788;28;20118;-78
2021/03/25 05:42:26;;;;;;;7.15;4.00;;;7.70;96.70;;;;;;4938022;28;20110;-77
2021/03/25 05:45:02;;;;;;;;;;;7.70;96.70;;;;;;4947807;28;20047;-77
2021/03/25 05:47:44;;;;;;;5.97;3.92;;;7.70;96.70;;;;;;4939940;28;19997;-78
2021/03/25 05:50:22;;;;;;;7.65;3.78;;;7.70;96.70;;;;;;4959083;28;20055;-78
2021/03/25 05:53:01;;;;;;;5.22;3.38;;;7.60;96.70;;;;;;4942616;28;20102;-78
2021/03/25 05:55:42;;;;;;;6.72;3.25;;;7.50;96.70;;;;;;4929537;29;20081;-78
2021/03/25 05:58:18;;;;;;;5.35;3.92;;;7.50;96.70;;;;;;4937782;28;20079;-77
2021/03/25 06:00:48;;;;;;;;;;;7.60;96.70;;;;;;4945115;28;20035;-78
2021/03/25 06:03:17;;;;;;;4.22;3.28;;;7.70;96.70;;;;;;4940069;29;20389;-77
2021/03/25 06:05:49;;;;;;;6.47;3.75;;;7.80;96.70;;;;;;4948445;28;20062;-77
2021/03/25 06:08:30;;;;;;;4.95;3.60;;;7.80;96.70;;;;;;4961377;28;20132;-78
2021/03/25 06:11:05;;;;;;;6.38;3.30;;;7.80;96.70;;;;;;4962415;28;20054;-78
2021/03/25 06:13:49;;;;;;;8.77;3.80;;;7.80;96.70;;;;;;4950833;28;20146;-77
2021/03/25 06:16:31;;;;;;;6.40;3.20;;;7.90;96.70;;;;;;4939664;28;20145;-77
2021/03/25 06:19:05;;;;;;;6.57;3.80;;;8.00;96.70;;;;;;4944628;28;20050;-77
2021/03/25 06:21:44;;;;;;;10.45;5.18;;;8.10;96.70;;;;;;4942796;28;20433;-78
2021/03/25 06:24:30;;;;;;;6.65;3.78;;;8.10;96.70;;;;;;4937159;28;20073;-77
2021/03/25 06:27:04;;;;;;;6.47;4.20;;;8.20;96.70;;;;;;4960044;28;20415;-77
2021/03/25 06:29:35;;;;;;;6.13;4.18;;;8.20;96.70;;;;;;4963161;28;20051;-77
2021/03/25 06:32:07;;;;;;;7.28;4.47;;;8.20;96.70;;;;;;4956291;28;20158;-77
2021/03/25 06:34:42;;;;;;;7.22;4.68;;;8.10;96.70;;;;;;4956101;28;20049;-77
2021/03/25 06:37:16;;;;;;;7.43;4.80;;;8.20;96.70;;;;;;4964000;28;20057;-78
2021/03/25 06:39:54;;;;;;;8.93;5.10;;;8.30;96.70;;;;;;4957805;28;20134;-78
2021/03/25 06:42:28;;;;;;;9.60;5.55;;;8.40;96.70;;;;;;4946821;28;20051;-77
2021/03/25 06:45:21;;;;;;;8.50;5.32;;;8.50;96.70;;;;;;4956358;28;20047;-78
2021/03/25 06:47:54;;;;;;;6.88;5.07;;;8.70;96.70;;;;;;4944679;28;20045;-78
2021/03/25 06:50:28;;;;;;;9.23;5.10;;;8.70;96.70;;;;;;4944416;28;20137;-78
2021/03/25 06:53:00;;;;;;;11.02;5.75;;;8.70;96.70;;;;;;4937417;28;20050;-78
2021/03/25 06:55:28;;;;;;;8.35;5.40;;;8.90;96.70;;;;;;4943783;28;21029;-78
2021/03/25 06:57:59;;;;;;;8.93;6.13;;;9.00;96.70;;;;;;4930775;28;20054;-78
2021/03/25 07:00:30;;;;;;;9.02;6.40;;;9.10;96.70;;;;;;4944071;28;20093;-77
2021/03/25 07:02:59;;;;;;;9.23;6.35;;;9.10;96.70;;;;;;4940492;28;20110;-77
2021/03/25 07:05:30;;;;;;;8.23;6.20;;;9.10;96.70;;;;;;4958778;28;20612;-78
2021/03/25 07:08:05;;;;;;;8.77;6.35;;;9.20;96.70;;;;;;4942559;28;20050;-77
2021/03/25 07:10:33;;;;;;;8.55;6.15;;;9.30;96.70;;;;;;4942287;28;20121;-77
2021/03/25 07:13:05;;;;;;;10.05;6.65;;;9.30;96.70;;;;;;4939162;28;20066;-77
2021/03/25 07:15:47;;;;;;;9.18;7.47;;;9.40;96.70;;;;;;4955125;28;20055;-79
2021/03/25 07:18:27;;;;;;;10.25;7.22;;;9.40;96.70;;;;;;4961788;28;20594;-78
2021/03/25 07:21:23;;;;;;;8.30;6.88;;;9.40;96.70;;;;;;4937472;29;20110;-77
2021/03/25 07:23:52;;;;;;;10.13;7.32;;;9.40;96.70;;;;;;4938383;28;20046;-77
2021/03/25 07:26:28;;;;;;;8.65;6.95;;;9.50;96.70;;;;;;4930425;28;20046;-78
2021/03/25 07:28:59;;;;;;;10.25;7.20;;;9.50;96.70;;;;;;4962265;28;20054;-77
2021/03/25 07:31:31;;;;;;;11.18;7.72;;;9.60;96.70;;;;;;4956409;28;20141;-77
2021/03/25 07:34:00;;;;;;;10.95;8.13;;;9.60;96.70;;;;;;4960762;28;20046;-77
2021/03/25 07:36:27;;;;;;;14.07;7.90;;;9.70;96.70;;;;;;4962312;28;20035;-77
2021/03/25 07:39:05;;;;;;;11.02;8.18;;;9.70;96.70;;;;;;4959537;28;20517;-77
2021/03/25 07:41:34;;;;;;;10.80;7.97;;;9.80;96.70;;;;;;4957025;28;20335;-77
2021/03/25 07:44:05;;;;;;;11.75;8.05;;;9.90;96.70;;;;;;4960734;28;20039;-77
2021/03/25 07:46:36;;;;;;;13.15;7.63;;;10.00;96.70;;;;;;4960198;28;20042;-78
2021/03/25 07:49:13;;;;;;;10.75;7.47;;;10.10;96.70;;;;;;4953810;28;20058;-78
2021/03/25 07:51:42;;;;;;;12.20;7.47;;;10.20;96.70;;;;;;4946234;28;20042;-77
2021/03/25 07:54:13;;;;;;;8.60;6.57;;;10.30;96.70;;;;;;4958597;28;20043;-78
2021/03/25 07:56:58;;;;;;;12.88;6.40;;;10.30;96.70;;;;;;4943106;28;20050;-78
2021/03/25 07:59:28;;;;;;;9.07;6.07;;;10.40;96.70;;;;;;4942078;28;20047;-77
2021/03/25 08:01:55;;;;;;;11.27;6.75;;;10.40;96.70;;;;;;4942965;28;20137;-78
2021/03/25 08:04:25;;;;;;;10.85;5.95;;;10.50;96.70;;;;;;4961506;28;20261;-77
2021/03/25 08:07:02;;;;;;;7.00;5.68;;;10.60;96.70;;;;;;4961347;28;20167;-77
2021/03/25 08:09:41;;;;;;;7.47;6.22;;;10.60;96.70;;;;;;4957556;28;20035;-76
2021/03/25 08:12:20;;;;;;;9.55;5.82;;;10.70;96.70;;;;;;4953386;28;20513;-76
2021/03/25 08:14:48;;;;;;;8.45;6.43;;;10.70;96.70;;;;;;4928163;28;20441;-77
2021/03/25 08:17:26;;;;;;;12.15;7.18;;;10.80;96.70;;;;;;4941329;28;20035;-77
2021/03/25 08:20:08;;;;;;;11.90;7.32;;;10.90;96.70;;;;;;4960179;28;20592;-76
2021/03/25 08:22:52;;;;;;;10.45;6.80;;;11.10;96.70;;;;;;4939790;28;20039;-77
2021/03/25 08:25:38;;;;;;;9.73;5.78;;;11.10;96.70;;;;;;4958044;28;20047;-77
2021/03/25 08:28:29;;;;;;;9.45;5.88;;;11.20;96.70;;;;;;4944498;28;20134;-78
2021/03/25 08:31:05;;;;;;;15.60;6.07;;;11.30;96.70;;;;;;4951555;28;20461;-77
2021/03/25 08:33:48;;;;;;;9.65;5.65;;;11.40;96.70;;;;;;4941742;28;20478;-78
2021/03/25 08:36:22;;;;;;;10.98;5.55;;;11.50;96.70;;;;;;4955864;28;20049;-78
2021/03/25 08:39:07;;;;;;;10.65;5.50;;;11.60;96.70;;;;;;4954745;28;20046;-78
2021/03/25 08:41:42;;;;;;;9.95;5.32;;;11.80;96.70;;;;;;4956212;28;20046;-78
2021/03/25 08:44:21;;;;;;;10.00;5.30;;;11.90;96.70;;;;;;4943321;28;20130;-76
2021/03/25 08:46:53;;;;;;;11.70;5.38;;;12.00;96.70;;;;;;4952622;28;20502;-78
2021/03/25 08:49:25;;;;;;;9.60;6.22;;;12.10;96.70;;;;;;4955517;28;20047;-77
2021/03/25 08:51:55;;;;;;;9.05;5.65;;;12.10;96.70;;;;;;4956439;28;20057;-76
2021/03/25 08:54:28;;;;;;;10.10;5.40;;;12.20;96.70;;;;;;4941912;28;20039;-76
2021/03/25 08:57:00;;;;;;;9.63;5.43;;;12.20;96.70;;;;;;4957297;28;20054;-76
2021/03/25 08:59:34;;;;;;;12.55;6.22;;;12.20;96.70;;;;;;4944211;28;20072;-76
2021/03/25 09:02:06;;;;;;;10.85;6.10;;;12.50;96.70;;;;;;4958566;28;20046;-78
2021/03/25 09:04:48;;;;;;;9.52;6.28;;;12.70;96.70;;;;;;4958022;28;20510;-77
2021/03/25 09:07:16;;;;;;;10.93;6.32;;;12.80;96.70;;;;;;4928062;28;20043;-77
2021/03/25 09:09:46;;;;;;;11.05;6.22;;;13.00;96.70;;;;;;4941087;28;20050;-76
2021/03/25 09:12:19;;;;;;;10.10;5.40;;;13.10;96.70;;;;;;4941580;28;20035;-76
2021/03/25 09:14:48;;;;;;;9.23;5.57;;;13.00;96.70;;;;;;4942158;28;20031;-74
2021/03/25 09:17:21;;;;;;;9.65;6.32;;;13.10;96.70;;;;;;4933861;28;20051;-76
2021/03/25 09:19:51;;;;;;;9.50;5.53;;;13.10;96.70;;;;;;4949816;28;20403;-75
2021/03/25 09:22:35;;;;;;;7.95;5.43;;;13.30;96.70;;;;;;4939226;28;20536;-77
2021/03/25 09:25:31;;;;;;;10.50;6.40;;;13.30;96.70;;;;;;4936615;29;20553;-74
2021/03/25 09:28:01;;;;;;;6.97;5.57;;;13.50;96.70;;;;;;4940135;28;20043;-75
2021/03/25 09:30:34;;;;;;;9.02;5.32;;;13.50;96.70;;;;;;4940539;28;20054;-77
2021/03/25 09:33:31;;;;;;;10.02;5.30;;;13.60;96.70;;;;;;4939009;28;20540;-75
2021/03/25 09:35:58;;;;;;;8.47;5.30;;;13.60;96.70;;;;;;4955766;28;20059;-75
2021/03/25 09:38:31;;;;;;;8.98;5.43;;;13.60;96.70;;;;;;4944923;28;20036;-76
2021/03/25 09:41:00;;;;;;;12.38;5.72;;;13.80;96.70;;;;;;4943321;28;20047;-76
2021/03/25 09:43:35;;;;;;;10.02;5.68;;;13.90;96.70;;;;;;4941815;28;20730;-75
2021/03/25 09:46:32;;;;;;;9.27;4.85;;;13.90;96.70;;;;;;4944944;29;20067;-75
2021/03/25 09:49:27;;;;;;;12.35;5.70;;;14.00;96.70;;;;;;4949621;28;20047;-76
2021/03/25 09:52:20;;;;;;;8.60;4.50;;;14.20;96.70;;;;;;4939854;28;20057;-75
2021/03/25 09:55:09;;;;;;;9.02;4.47;;;14.20;96.70;;;;;;4941047;28;20160;-75
2021/03/25 09:57:50;;;;;;;15.45;4.78;;;14.30;96.70;;;;;;4940818;28;20047;-75
2021/03/25 10:00:47;;;;;;;8.30;4.60;;;14.20;96.70;;;;;;4944060;28;20422;-75
2021/03/25 10:03:14;;;;;;;10.43;4.97;;;14.10;96.70;;;;;;4942468;29;20548;-75
2021/03/25 10:05:43;;;;;;;8.13;4.60;;;14.30;96.70;;;;;;4940364;28;20149;-75
2021/03/25 10:08:40;;;;;;;8.07;4.80;;;14.50;96.70;;;;;;4954030;28;20126;-75
2021/03/25 10:11:37;;;;;;;11.40;5.25;;;14.70;96.40;;;;;;4941931;28;20145;-75
2021/03/25 10:14:39;;;;;;;9.57;4.60;;;14.80;96.00;;;;;;4940044;29;20047;-75
2021/03/25 10:17:06;;;;;;;8.70;5.00;;;15.00;95.40;;;;;;4954492;28;20174;-75
2021/03/25 10:19:49;;;;;;;9.95;5.30;;;15.00;95.30;;;;;;4942073;29;20039;-76
2021/03/25 10:22:20;;;;;;;12.02;6.43;;;15.20;95.00;;;;;;4941733;28;20094;-76
2021/03/25 10:24:55;;;;;;;10.90;5.60;;;15.30;94.90;;;;;;4944057;28;20063;-76
2021/03/25 10:27:33;;;;;;;11.65;5.38;;;15.40;94.90;;;;;;4954012;28;20058;-76
2021/03/25 10:30:18;;;;;;;7.82;4.75;;;15.40;94.40;;;;;;4943448;28;20131;-76
2021/03/25 10:32:46;;;;;;;8.48;4.78;;;15.30;94.80;;;;;;4923967;29;20074;-76
2021/03/25 10:35:20;;;;;;;8.07;4.88;;;15.50;94.20;;;;;;4942438;28;20450;-76
2021/03/25 10:38:02;;;;;;;9.48;4.80;;;15.50;93.90;;;;;;4957133;28;20089;-75
2021/03/25 10:40:33;;;;;;;9.23;4.43;;;15.60;93.50;;;;;;4940758;28;20506;-76
2021/03/25 10:43:03;;;;;;;9.55;5.00;;;15.60;93.50;;;;;;4939407;29;20423;-76
2021/03/25 10:45:36;;;;;;;7.63;4.38;;;15.70;93.80;;;;;;4942819;28;20572;-77
2021/03/25 10:48:21;;;;;;;10.40;5.05;;;16.10;92.20;;;;;;4951271;28;20035;-76
2021/03/25 10:50:54;;;;;;;7.22;4.95;;;16.50;91.50;;;;;;4959712;28;20281;-78
2021/03/25 10:53:26;;;;;;;8.13;4.50;;;16.50;91.10;;;;;;4943325;29;20071;-77
2021/03/25 10:56:03;;;;;;;8.23;4.03;;;16.50;90.50;;;;;;4941816;28;20657;-77
2021/03/25 10:58:38;;;;;;;10.57;4.13;;;16.60;90.70;;;;;;4935279;28;20051;-76
2021/03/25 11:01:13;;;;;;;7.82;3.92;;;16.70;89.90;;;;;;4941553;29;20445;-76
2021/03/25 11:03:41;;;;;;;8.82;4.40;;;16.60;89.70;;;;;;4956228;28;20049;-76
2021/03/25 11:06:18;;;;;;;7.15;3.88;;;16.70;89.30;;;;;;4927261;29;20091;-76
2021/03/25 11:08:47;;;;;;;8.25;4.18;;;16.60;89.30;;;;;;4936925;28;20118;-76
2021/03/25 11:11:16;;;;;;;7.95;3.72;;;16.40;89.40;;;;;;4928235;29;20564;-76
2021/03/25 11:13:54;;;;;;;6.97;3.72;;;16.10;89.60;;;;;;4943721;28;20043;-76
2021/03/25 11:16:23;;;;;;;7.28;4.00;;;16.30;90.30;;;;;;4940582;29;20047;-76
2021/03/25 11:18:56;;;;;;;7.72;4.35;;;16.50;88.80;;;;;;4943059;28;20118;-76
2021/03/25 11:21:30;;;;;;;6.30;4.13;;;16.40;88.60;;;;;;4926163;29;20055;-76
2021/03/25 11:24:03;;;;;;;8.68;3.95;;;16.60;89.00;;;;;;4938514;28;20059;-78
2021/03/25 11:26:31;;;;;;;7.00;4.10;;;16.70;88.40;;;;;;4940781;29;20050;-73
2021/03/25 11:29:00;;;;;;;7.45;3.60;;;16.70;88.40;;;;;;4939148;28;20119;-73
2021/03/25 11:31:30;;;;;;;5.07;3.22;;;16.80;88.60;;;;;;4939892;29;20168;-75
2021/03/25 11:33:59;;;;;;;6.97;3.95;;;17.00;87.30;;;;;;4950607;28;20043;-76
2021/03/25 11:36:35;;;;;;;5.57;3.47;;;16.90;86.70;;;;;;4934060;29;20506;-74
2021/03/25 11:39:21;;;;;;;10.23;3.83;;;16.80;86.90;;;;;;4940594;28;20098;-75
2021/03/25 11:41:50;;;;;;;5.72;3.75;;;16.90;87.20;;;;;;4941640;28;20043;-76
2021/03/25 11:44:35;;;;;;;5.50;3.60;;;17.00;86.20;;;;;;4940906;29;20043;-76
2021/03/25 11:47:21;;;;;;;6.97;3.90;;;17.20;86.50;;;;;;4943190;28;20134;-76
2021/03/25 11:49:50;;;;;;;9.23;3.90;;;17.30;85.80;;;;;;4942489;29;20291;-78
2021/03/25 11:52:22;;;;;;;7.13;3.90;;;17.40;86.10;;;;;;4942789;28;20146;-76
2021/03/25 11:55:00;;;;;;;6.82;3.85;;;17.40;85.60;;;;;;4940109;28;20101;-77
2021/03/25 11:57:30;;;;;;;7.88;3.78;;;17.50;85.40;;;;;;4942103;28;20257;-76
2021/03/25 12:00:09;;;;;;;18.73;8.77;;;17.50;84.20;;;;;;4932323;29;20073;-77
2021/03/25 12:02:38;;;;;;;5.68;3.90;;;17.50;85.20;;;;;;4954802;28;20190;-76
2021/03/25 12:05:21;;;;;;;7.40;4.43;;;17.50;84.90;;;;;;4940102;29;20528;-76
2021/03/25 12:08:00;;;;;;;7.90;3.85;;;17.60;84.80;;;;;;4940612;28;20118;-78
2021/03/25 12:10:28;;;;;;;7.10;3.80;;;17.60;84.40;;;;;;4938155;28;20125;-76
2021/03/25 12:12:56;;;;;;;10.10;3.83;;;17.60;84.50;;;;;;4936101;28;20409;-77
2021/03/25 12:15:23;;;;;;;10.38;4.25;;;17.80;84.60;;;;;;4935845;28;20148;-76
2021/03/25 12:17:54;;;;;;;6.07;3.33;;;17.80;84.50;;;;;;4938858;28;20061;-78
2021/03/25 12:20:24;;;;;;;7.80;3.30;;;17.90;84.50;;;;;;4940256;28;20086;-77
2021/03/25 12:23:02;;;;;;;8.57;3.35;;;17.80;84.20;;;;;;4918983;29;20498;-77
2021/03/25 12:25:43;;;;;;;6.68;3.10;;;17.60;84.10;;;;;;4939794;28;20047;-76
2021/03/25 12:28:12;;;;;;;6.45;3.88;;;17.80;84.40;;;;;;4939647;29;20043;-77
2021/03/25 12:30:39;;;;;;;4.18;2.45;;;18.10;83.40;;;;;;4947933;28;20071;-76
2021/03/25 12:33:07;;;;;;;6.25;2.75;;;18.10;83.70;;;;;;4921335;29;20142;-76
2021/03/25 12:35:35;;;;;;;6.78;3.15;;;18.10;82.90;;;;;;4934729;28;20054;-76
2021/03/25 12:38:04;;;;;;;7.50;2.78;;;18.20;83.10;;;;;;4935063;28;20051;-77
2021/03/25 12:40:31;;;;;;;6.82;2.80;;;18.20;82.90;;;;;;4936305;28;20162;-76
2021/03/25 12:42:59;;;;;;;7.32;2.63;;;18.10;83.20;;;;;;4938255;29;20048;-76
2021/03/25 12:45:34;;;;;;;6.75;2.67;;;18.00;82.90;;;;;;4949842;28;20098;-76
2021/03/25 12:48:01;;;;;;;4.82;2.53;;;18.10;83.80;;;;;;4955326;28;20138;-79
2021/03/25 12:50:29;;;;;;;7.53;2.92;;;18.20;82.80;;;;;;4920821;29;20049;-77
2021/03/25 12:52:58;;;;;;;4.32;2.15;;;18.20;82.40;;;;;;4952476;28;20047;-79
2021/03/25 12:55:26;;;;;;;9.50;2.58;;;18.30;83.30;;;;;;4935135;28;20069;-77
2021/03/25 12:57:55;;;;;;;6.70;2.25;;;18.40;82.60;;;;;;4947755;28;20043;-77
2021/03/25 13:00:28;;;;;;;5.95;2.42;;;18.50;82.80;;;;;;4941844;28;20441;-75
2021/03/25 13:02:56;;;;;;;7.30;2.53;;;18.30;82.10;;;;;;4946102;28;20436;-75
2021/03/25 13:05:25;;;;;;;4.55;2.33;;;18.30;82.40;;;;;;4962800;28;20469;-75
2021/03/25 13:08:04;;;;;;;6.53;2.67;;;18.20;82.60;;;;;;4961345;28;20039;-75
2021/03/25 13:10:34;;;;;;;5.85;2.33;;;18.30;82.40;;;;;;4944805;28;20505;-74
2021/03/25 13:13:01;;;;;;;6.60;2.47;;;18.30;82.00;;;;;;4925441;28;20151;-76
2021/03/25 13:15:30;;;;;;;7.07;2.25;;;18.10;82.40;;;;;;4941584;28;20034;-77
2021/03/25 13:17:58;;;;;;;6.53;4.32;;;18.20;82.20;;;;;;4945311;28;20552;-75
2021/03/25 13:20:31;;;;;;;15.25;8.98;;;18.20;82.20;;;;;;4962227;28;20074;-75
2021/03/25 13:22:58;;;;;;;6.63;2.40;;;18.40;82.70;;;;;;4944364;28;20453;-76
2021/03/25 13:25:28;;;;;;;6.38;2.83;;;18.40;81.50;;;;;;4965325;28;20035;-75
2021/03/25 13:27:56;;;;;;;11.95;8.32;;;18.40;81.30;;;;;;4964140;28;20725;-75